Time;durP1;ratioP1;P1;durP2;ratioP2;P2;SDS_P1;SDS_P2;PMS_P1;PMS_P2;Temp;Humidity;BMP_temperature;BMP_pressure;BME280_temperature;BME280_humidity;BME280_pressure;Samples;Min_cycle;Max_cycle;Signal;HPM_P1;HPM_P2
2023/05/26 00:00:58;;;;;;;5.28;4.32;;;;;;;;;;2049210;29;20075;-90
2023/05/26 00:01:59;;;;;;;5.18;4.20;;;;;;;;;;2048656;29;20587;-89
2023/05/26 00:02:59;;;;;;;6.38;4.43;;;;;;;;;;1696896;29;10277056;-90
2023/05/26 00:04:00;;;;;;;5.38;4.43;;;;;;;;;;2048536;29;20114;-90
2023/05/26 00:05:01;;;;;;;5.30;4.25;;;;;;;;;;2040452;29;20515;-89
2023/05/26 00:06:02;;;;;;;5.45;4.30;;;;;;;;;;2040341;29;20043;-91
2023/05/26 00:07:03;;;;;;;5.63;4.15;;;;;;;;;;2048390;29;20027;-90
2023/05/26 00:08:04;;;;;;;6.22;4.10;;;;;;;;;;2047981;29;20654;-90
2023/05/26 00:09:05;;;;;;;5.00;3.95;;;;;;;;;;2048194;29;20110;-90
2023/05/26 00:10:07;;;;;;;5.78;4.15;;;;;;;;;;2048269;29;20027;-89
2023/05/26 00:11:10;;;;;;;5.68;4.28;;;;;;;;;;2048330;29;20026;-90
2023/05/26 00:12:11;;;;;;;4.38;3.80;;;;;;;;;;2048317;29;20023;-89
2023/05/26 00:13:11;;;;;;;5.03;4.38;;;;;;;;;;2047506;29;20142;-90
2023/05/26 00:14:14;;;;;;;6.85;4.35;;;;;;;;;;2048383;29;20027;-90
2023/05/26 00:15:14;;;;;;;5.63;4.22;;;;;;;;;;2048563;29;20057;-90
2023/05/26 00:16:15;;;;;;;5.03;3.80;;;;;;;;;;2040501;29;20121;-90
2023/05/26 00:17:16;;;;;;;4.88;3.70;;;;;;;;;;2048677;29;20027;-90
2023/05/26 00:18:17;;;;;;;4.93;4.18;;;;;;;;;;2048451;29;20099;-89
2023/05/26 00:19:19;;;;;;;7.90;4.13;;;;;;;;;;2048440;29;20052;-89
2023/05/26 00:20:23;;;;;;;5.03;4.30;;;;;;;;;;2041290;29;20031;-89
2023/05/26 00:21:23;;;;;;;8.10;4.80;;;;;;;;;;2045161;29;20047;-89
2023/05/26 00:22:23;;;;;;;5.60;4.43;;;;;;;;;;2054570;29;20089;-88
2023/05/26 00:23:24;;;;;;;5.90;3.95;;;;;;;;;;2055502;29;20030;-88
2023/05/26 00:24:24;;;;;;;6.82;4.50;;;;;;;;;;2047857;29;20069;-88
2023/05/26 00:25:25;;;;;;;7.78;4.50;;;;;;;;;;2045814;29;20023;-89
2023/05/26 00:26:25;;;;;;;5.80;4.47;;;;;;;;;;2043042;29;20087;-89
2023/05/26 00:27:26;;;;;;;5.53;4.03;;;;;;;;;;2044150;29;20035;-88
2023/05/26 00:28:26;;;;;;;7.88;4.28;;;;;;;;;;2042444;29;20024;-89
2023/05/26 00:29:27;;;;;;;6.20;4.90;;;;;;;;;;2042166;29;20467;-89
2023/05/26 00:30:28;;;;;;;5.93;4.72;;;;;;;;;;2040840;29;20026;-89
2023/05/26 00:31:29;;;;;;;7.15;4.85;;;;;;;;;;2040586;29;20027;-89
2023/05/26 00:32:30;;;;;;;6.63;4.85;;;;;;;;;;2040605;29;20290;-89
2023/05/26 00:33:30;;;;;;;7.20;4.05;;;;;;;;;;2042861;29;20082;-89
2023/05/26 00:34:33;;;;;;;5.88;4.35;;;;;;;;;;2038706;29;20472;-89
2023/05/26 00:35:33;;;;;;;6.72;4.10;;;;;;;;;;1691041;28;10279239;-90
2023/05/26 00:36:35;;;;;;;6.47;4.63;;;;;;;;;;2041205;29;20059;-89
2023/05/26 00:37:35;;;;;;;5.90;4.45;;;;;;;;;;2041041;29;20075;-89
2023/05/26 00:38:35;;;;;;;;;;;;;;;;;;1684911;29;10441760;-89
2023/05/26 00:39:36;;;;;;;5.57;4.03;;;;;;;;;;2038074;29;20413;-89
2023/05/26 00:40:36;;;;;;;;;;;;;;;;;;1694977;29;10340094;-89
2023/05/26 00:41:37;;;;;;;7.40;4.57;;;;;;;;;;2049912;28;19995;-90
2023/05/26 00:42:37;;;;;;;5.90;4.60;;;;;;;;;;2057793;28;20031;-89
2023/05/26 00:43:38;;;;;;;5.75;4.70;;;;;;;;;;2056216;29;20038;-89
2023/05/26 00:44:38;;;;;;;5.35;4.55;;;;;;;;;;2055694;29;20051;-89
2023/05/26 00:45:38;;;;;;;5.55;4.50;;;;;;;;;;2049415;29;20058;-89
2023/05/26 00:46:39;;;;;;;8.30;4.68;;;;;;;;;;2048983;28;20046;-89
2023/05/26 00:47:40;;;;;;;8.18;4.65;;;;;;;;;;2048256;29;20031;-89
2023/05/26 00:48:40;;;;;;;6.20;4.70;;;;;;;;;;2047769;29;20035;-90
2023/05/26 00:49:41;;;;;;;7.82;5.00;;;;;;;;;;2049441;28;20031;-89
2023/05/26 00:50:41;;;;;;;7.57;4.55;;;;;;;;;;2047700;29;20027;-89
2023/05/26 00:51:44;;;;;;;7.65;5.05;;;;;;;;;;2039629;29;20179;-90
2023/05/26 00:52:45;;;;;;;8.63;4.90;;;;;;;;;;2040122;29;20138;-90
2023/05/26 00:53:45;;;;;;;7.82;5.10;;;;;;;;;;2047763;29;20027;-89
2023/05/26 00:54:46;;;;;;;6.93;4.70;;;;;;;;;;2048530;28;20030;-89
2023/05/26 00:55:51;;;;;;;7.32;5.00;;;;;;;;;;2048185;28;20035;-89
2023/05/26 00:56:52;;;;;;;7.10;5.00;;;;;;;;;;2048507;28;20480;-90
2023/05/26 00:57:52;;;;;;;6.78;5.18;;;;;;;;;;2047843;29;20483;-89
2023/05/26 00:58:54;;;;;;;8.35;4.57;;;;;;;;;;2051881;29;20074;-89
2023/05/26 00:59:56;;;;;;;6.82;4.70;;;;;;;;;;2044245;29;20028;-90
2023/05/26 01:00:57;;;;;;;7.20;4.53;;;;;;;;;;2057073;28;20019;-89
2023/05/26 01:01:58;;;;;;;7.70;4.70;;;;;;;;;;2058361;28;20080;-89
2023/05/26 01:02:59;;;;;;;6.88;4.57;;;;;;;;;;2056575;29;20102;-89
2023/05/26 01:03:59;;;;;;;6.70;4.40;;;;;;;;;;2044049;29;20040;-90
2023/05/26 01:05:00;;;;;;;8.60;4.97;;;;;;;;;;2048479;29;20031;-90
2023/05/26 01:06:01;;;;;;;9.15;5.47;;;;;;;;;;2047442;28;20027;-90
2023/05/26 01:07:01;;;;;;;7.28;4.25;;;;;;;;;;2038756;29;20027;-90
2023/05/26 01:08:02;;;;;;;6.07;4.25;;;;;;;;;;2040213;29;20031;-90
2023/05/26 01:09:03;;;;;;;6.05;4.45;;;;;;;;;;2039985;29;20023;-89
2023/05/26 01:10:04;;;;;;;6.28;5.07;;;;;;;;;;2047737;29;20464;-90
2023/05/26 01:11:31;;;;;;;8.63;4.80;;;;;;;;;;2039441;29;20051;-89
2023/05/26 01:12:40;;;;;;;6.18;4.63;;;;;;;;;;2036469;29;20130;-89
2023/05/26 01:13:53;;;;;;;6.38;4.57;;;;;;;;;;2040804;29;20413;-89
2023/05/26 01:15:00;;;;;;;9.32;5.20;;;;;;;;;;2047923;29;20085;-90
2023/05/26 01:16:06;;;;;;;6.03;5.43;;;;;;;;;;2048232;29;20026;-90
2023/05/26 01:17:12;;;;;;;9.15;4.95;;;;;;;;;;2040700;29;20054;-89
2023/05/26 01:18:16;;;;;;;7.38;5.00;;;;;;;;;;2048774;28;20541;-90
2023/05/26 01:19:46;;;;;;;5.47;4.88;;;;;;;;;;2049515;29;20019;-90
2023/05/26 01:20:56;;;;;;;7.88;6.07;;;;;;;;;;2043395;29;20459;-90
2023/05/26 01:22:18;;;;;;;7.68;5.82;;;;;;;;;;2047599;29;20197;-90
2023/05/26 01:23:35;;;;;;;9.10;6.05;;;;;;;;;;2042611;29;20085;-90
2023/05/26 01:24:56;;;;;;;8.82;5.53;;;;;;;;;;2049991;28;20055;-90
2023/05/26 01:26:11;;;;;;;6.82;4.65;;;;;;;;;;2047772;29;20030;-90
2023/05/26 01:27:23;;;;;;;6.22;4.60;;;;;;;;;;2049723;28;20023;-90
2023/05/26 01:28:29;;;;;;;6.45;5.03;;;;;;;;;;2047318;29;20031;-91
2023/05/26 01:29:33;;;;;;;9.18;4.88;;;;;;;;;;2048319;28;20019;-90
2023/05/26 01:30:34;;;;;;;9.23;6.03;;;;;;;;;;2047820;29;20386;-91
2023/05/26 01:31:38;;;;;;;8.55;6.32;;;;;;;;;;2047720;29;20030;-89
2023/05/26 01:32:46;;;;;;;9.30;6.25;;;;;;;;;;2039743;29;20483;-90
2023/05/26 01:33:46;;;;;;;8.15;6.32;;;;;;;;;;2039126;29;20614;-90
2023/05/26 01:34:47;;;;;;;9.95;6.43;;;;;;;;;;2047572;29;20102;-90
2023/05/26 01:35:47;;;;;;;7.55;6.15;;;;;;;;;;2047400;29;20030;-90
2023/05/26 01:36:48;;;;;;;8.50;6.25;;;;;;;;;;2039565;29;20024;-90
2023/05/26 01:37:48;;;;;;;8.40;5.75;;;;;;;;;;2039424;29;20111;-90
2023/05/26 01:38:49;;;;;;;6.63;4.82;;;;;;;;;;2047584;29;20452;-89
2023/05/26 01:39:49;;;;;;;11.75;5.68;;;;;;;;;;2048291;28;20026;-90
2023/05/26 01:40:56;;;;;;;9.43;5.32;;;;;;;;;;2047573;29;20050;-89
2023/05/26 01:42:08;;;;;;;6.82;5.03;;;;;;;;;;2040716;29;20035;-90
2023/05/26 01:43:18;;;;;;;7.93;6.05;;;;;;;;;;1685813;28;10434282;-90
2023/05/26 01:44:40;;;;;;;8.50;5.65;;;;;;;;;;2040783;29;20035;-90
2023/05/26 01:45:55;;;;;;;6.78;4.70;;;;;;;;;;2041982;29;20031;-90
2023/05/26 01:46:58;;;;;;;9.38;5.53;;;;;;;;;;2041760;29;20032;-90
2023/05/26 01:48:03;;;;;;;6.22;5.28;;;;;;;;;;2040508;29;20103;-89
2023/05/26 01:49:05;;;;;;;6.22;4.70;;;;;;;;;;2044311;29;20027;-90
2023/05/26 01:50:08;;;;;;;6.88;4.90;;;;;;;;;;2048018;29;20348;-89
2023/05/26 01:51:10;;;;;;;6.65;4.95;;;;;;;;;;2048499;28;20415;-90
2023/05/26 01:52:12;;;;;;;8.02;5.45;;;;;;;;;;2047502;29;20118;-90
2023/05/26 01:53:15;;;;;;;10.13;5.35;;;;;;;;;;2039874;29;20523;-89
2023/05/26 01:54:18;;;;;;;7.53;5.40;;;;;;;;;;2039886;29;20055;-90
2023/05/26 01:55:21;;;;;;;8.05;5.82;;;;;;;;;;2039854;29;20067;-89
2023/05/26 01:56:25;;;;;;;6.18;5.20;;;;;;;;;;2039848;29;20019;-90
2023/05/26 01:57:26;;;;;;;9.15;5.38;;;;;;;;;;2039906;29;20032;-90
2023/05/26 01:58:28;;;;;;;7.97;5.53;;;;;;;;;;2047581;29;20474;-88
2023/05/26 01:59:30;;;;;;;10.30;5.95;;;;;;;;;;2048116;29;20023;-89
2023/05/26 02:00:30;;;;;;;6.80;4.95;;;;;;;;;;2046992;29;20043;-89
2023/05/26 02:01:33;;;;;;;7.07;5.10;;;;;;;;;;2047239;29;20031;-88
2023/05/26 02:02:34;;;;;;;5.93;5.22;;;;;;;;;;2048022;28;20430;-89
2023/05/26 02:03:35;;;;;;;7.43;5.40;;;;;;;;;;2047582;29;20114;-89
2023/05/26 02:04:36;;;;;;;6.80;4.80;;;;;;;;;;2039615;29;20028;-90
2023/05/26 02:05:36;;;;;;;7.35;5.18;;;;;;;;;;2047287;29;20039;-90
2023/05/26 02:06:37;;;;;;;6.03;4.97;;;;;;;;;;2039625;29;20138;-89
2023/05/26 02:07:40;;;;;;;6.95;4.20;;;;;;;;;;2039370;29;20016;-89
2023/05/26 02:08:41;;;;;;;8.38;4.97;;;;;;;;;;2047314;29;20415;-89
2023/05/26 02:09:41;;;;;;;8.55;5.15;;;;;;;;;;2048580;29;20510;-88
2023/05/26 02:10:41;;;;;;;6.40;4.57;;;;;;;;;;2049982;29;20054;-88
2023/05/26 02:11:42;;;;;;;6.97;5.03;;;;;;;;;;2039639;29;20526;-90
2023/05/26 02:12:42;;;;;;;7.20;5.07;;;;;;;;;;2047607;29;20102;-90
2023/05/26 02:13:45;;;;;;;5.22;4.40;;;;;;;;;;2047612;29;20050;-89
2023/05/26 02:14:45;;;;;;;7.15;5.13;;;;;;;;;;2047384;29;20063;-90
2023/05/26 02:15:46;;;;;;;8.25;5.00;;;;;;;;;;1697239;29;10240540;-89
2023/05/26 02:16:46;;;;;;;7.07;4.80;;;;;;;;;;2048294;29;20488;-89
2023/05/26 02:17:53;;;;;;;6.53;4.60;;;;;;;;;;2047471;29;20325;-89
2023/05/26 02:18:54;;;;;;;7.07;5.13;;;;;;;;;;2050363;28;20244;-89
2023/05/26 02:19:55;;;;;;;6.70;4.70;;;;;;;;;;2048338;28;20547;-89
2023/05/26 02:20:55;;;;;;;8.30;4.85;;;;;;;;;;2048157;28;20057;-90
2023/05/26 02:21:56;;;;;;;6.13;4.88;;;;;;;;;;2048390;28;20086;-90
2023/05/26 02:22:56;;;;;;;6.63;5.47;;;;;;;;;;2047521;29;20354;-90
2023/05/26 02:23:57;;;;;;;6.60;4.90;;;;;;;;;;2039610;29;20532;-91
2023/05/26 02:24:57;;;;;;;7.45;4.82;;;;;;;;;;2039608;29;20028;-90
2023/05/26 02:25:58;;;;;;;6.63;4.65;;;;;;;;;;2047269;29;20074;-90
2023/05/26 02:27:01;;;;;;;6.53;5.15;;;;;;;;;;2047509;29;20354;-90
2023/05/26 02:28:01;;;;;;;5.60;4.45;;;;;;;;;;2047397;28;20570;-89
2023/05/26 02:29:02;;;;;;;7.15;5.15;;;;;;;;;;2047819;28;20031;-88
2023/05/26 02:30:03;;;;;;;6.82;5.18;;;;;;;;;;2048198;29;20520;-89
2023/05/26 02:31:04;;;;;;;9.32;5.20;;;;;;;;;;2046791;29;20023;-90
2023/05/26 02:32:04;;;;;;;7.93;5.78;;;;;;;;;;2047409;29;20030;-90
2023/05/26 02:33:06;;;;;;;7.20;5.47;;;;;;;;;;2047948;28;20471;-89
2023/05/26 02:34:06;;;;;;;8.25;5.13;;;;;;;;;;1697057;29;10246302;-90
2023/05/26 02:35:09;;;;;;;6.07;5.20;;;;;;;;;;2039229;29;20476;-89
2023/05/26 02:36:11;;;;;;;7.10;5.05;;;;;;;;;;2048144;29;20074;-88
2023/05/26 02:37:11;;;;;;;7.45;4.93;;;;;;;;;;2048453;28;20105;-89
2023/05/26 02:38:12;;;;;;;6.68;5.10;;;;;;;;;;2048204;29;20099;-90
2023/05/26 02:39:12;;;;;;;7.72;4.70;;;;;;;;;;2047088;29;20368;-88
2023/05/26 02:40:20;;;;;;;8.38;4.97;;;;;;;;;;2047192;29;20038;-89
2023/05/26 02:41:21;;;;;;;6.00;4.70;;;;;;;;;;2047162;29;20345;-90
2023/05/26 02:42:21;;;;;;;6.50;4.90;;;;;;;;;;2038998;29;20486;-89
2023/05/26 02:43:23;;;;;;;7.80;5.55;;;;;;;;;;2039105;29;20074;-90
2023/05/26 02:44:24;;;;;;;6.50;4.97;;;;;;;;;;2047098;29;20015;-89
2023/05/26 02:45:24;;;;;;;6.90;4.75;;;;;;;;;;2046889;29;20158;-89
2023/05/26 02:46:27;;;;;;;6.88;5.10;;;;;;;;;;2046963;29;20491;-91
2023/05/26 02:47:27;;;;;;;9.05;4.85;;;;;;;;;;2047700;28;20031;-90
2023/05/26 02:48:30;;;;;;;6.72;4.82;;;;;;;;;;2046865;29;20047;-89
2023/05/26 02:49:31;;;;;;;6.38;4.75;;;;;;;;;;2047088;29;20473;-90
2023/05/26 02:50:31;;;;;;;5.95;4.75;;;;;;;;;;2047009;29;20031;-91
2023/05/26 02:51:33;;;;;;;8.13;4.55;;;;;;;;;;2047747;29;20418;-90
2023/05/26 02:52:34;;;;;;;6.80;5.00;;;;;;;;;;2046894;29;20034;-90
2023/05/26 02:53:34;;;;;;;7.82;4.85;;;;;;;;;;2039049;29;20054;-91
2023/05/26 02:54:37;;;;;;;5.90;4.82;;;;;;;;;;2046660;29;20082;-90
2023/05/26 02:55:38;;;;;;;8.80;5.10;;;;;;;;;;2039130;29;20027;-89
2023/05/26 02:56:39;;;;;;;7.75;4.63;;;;;;;;;;2039119;29;20483;-89
2023/05/26 02:57:39;;;;;;;6.25;4.40;;;;;;;;;;2047110;29;20277;-91
2023/05/26 02:58:40;;;;;;;5.10;3.85;;;;;;;;;;2046818;29;20434;-91
2023/05/26 02:59:40;;;;;;;7.03;4.53;;;;;;;;;;2047004;29;20058;-89
2023/05/26 03:00:45;;;;;;;6.97;4.88;;;;;;;;;;2049017;29;20134;-89
2023/05/26 03:01:46;;;;;;;8.75;3.95;;;;;;;;;;1695953;29;10167346;-89
2023/05/26 03:02:46;;;;;;;5.03;4.32;;;;;;;;;;2048314;29;20028;-89
2023/05/26 03:03:47;;;;;;;9.48;4.50;;;;;;;;;;2047137;29;20035;-90
2023/05/26 03:04:47;;;;;;;7.35;4.90;;;;;;;;;;2039164;29;20031;-89
2023/05/26 03:05:48;;;;;;;7.07;4.93;;;;;;;;;;2047355;29;20034;-89
2023/05/26 03:06:48;;;;;;;5.22;4.55;;;;;;;;;;2048127;29;20031;-90
2023/05/26 03:07:48;;;;;;;6.75;4.50;;;;;;;;;;2046917;29;20023;-90
2023/05/26 03:08:49;;;;;;;5.55;4.20;;;;;;;;;;2047130;29;20035;-90
2023/05/26 03:09:50;;;;;;;6.63;4.53;;;;;;;;;;2048155;28;20077;-90
2023/05/26 03:10:50;;;;;;;7.00;5.15;;;;;;;;;;2047931;29;20344;-90
2023/05/26 03:11:51;;;;;;;7.40;4.32;;;;;;;;;;2050342;29;20055;-90
2023/05/26 03:12:51;;;;;;;5.40;4.57;;;;;;;;;;2049504;28;20012;-89
2023/05/26 03:13:51;;;;;;;5.28;4.57;;;;;;;;;;2049419;29;20118;-89
2023/05/26 03:14:52;;;;;;;7.13;4.47;;;;;;;;;;2057375;29;20024;-90
2023/05/26 03:15:52;;;;;;;6.25;4.13;;;;;;;;;;2060475;28;20034;-91
2023/05/26 03:16:53;;;;;;;5.28;4.35;;;;;;;;;;1689284;29;10500054;-90
2023/05/26 03:17:53;;;;;;;7.75;4.40;;;;;;;;;;2047534;29;20027;-90
2023/05/26 03:18:54;;;;;;;6.40;4.28;;;;;;;;;;2056202;28;20465;-89
2023/05/26 03:19:55;;;;;;;6.15;4.30;;;;;;;;;;2056608;28;20038;-89
2023/05/26 03:20:55;;;;;;;8.85;4.65;;;;;;;;;;2047799;29;20035;-90
2023/05/26 03:21:56;;;;;;;6.32;4.35;;;;;;;;;;2039162;29;20055;-90
2023/05/26 03:22:56;;;;;;;10.55;4.88;;;;;;;;;;2039134;29;20051;-91
2023/05/26 03:23:57;;;;;;;6.30;4.45;;;;;;;;;;2038904;29;20031;-90
2023/05/26 03:24:57;;;;;;;6.60;4.85;;;;;;;;;;2047168;29;20085;-90
2023/05/26 03:25:58;;;;;;;7.32;4.93;;;;;;;;;;2047647;29;20495;-90
2023/05/26 03:27:01;;;;;;;6.30;4.70;;;;;;;;;;2046929;29;20121;-90
2023/05/26 03:28:01;;;;;;;8.40;4.88;;;;;;;;;;2047096;29;20411;-90
2023/05/26 03:29:04;;;;;;;9.23;4.80;;;;;;;;;;2046904;28;20062;-90
2023/05/26 03:30:06;;;;;;;6.95;4.68;;;;;;;;;;2047859;28;20050;-89
2023/05/26 03:31:06;;;;;;;6.32;4.68;;;;;;;;;;2050715;29;20039;-90
2023/05/26 03:32:06;;;;;;;7.95;4.72;;;;;;;;;;2059027;28;20023;-90
2023/05/26 03:33:07;;;;;;;6.53;4.90;;;;;;;;;;2050861;29;20090;-89
2023/05/26 03:34:07;;;;;;;5.75;4.80;;;;;;;;;;2050155;29;20343;-90
2023/05/26 03:35:08;;;;;;;7.57;4.55;;;;;;;;;;2047104;29;20054;-90
2023/05/26 03:36:08;;;;;;;8.15;4.63;;;;;;;;;;2052532;29;20023;-88
2023/05/26 03:37:10;;;;;;;7.40;4.50;;;;;;;;;;2058012;29;20018;-89
2023/05/26 03:38:10;;;;;;;5.43;4.57;;;;;;;;;;2057860;29;20038;-89
2023/05/26 03:39:13;;;;;;;6.15;4.25;;;;;;;;;;2057874;29;20091;-89
2023/05/26 03:40:13;;;;;;;6.10;4.05;;;;;;;;;;2057185;29;20019;-90
2023/05/26 03:41:14;;;;;;;7.53;4.20;;;;;;;;;;2040573;29;20027;-91
2023/05/26 03:42:14;;;;;;;6.72;4.80;;;;;;;;;;2040618;29;20034;-90
2023/05/26 03:43:15;;;;;;;6.03;4.50;;;;;;;;;;2048388;29;20019;-90
2023/05/26 03:44:21;;;;;;;7.07;4.70;;;;;;;;;;2048524;29;20050;-91
2023/05/26 03:45:21;;;;;;;6.20;4.00;;;;;;;;;;2051994;28;20360;-90
2023/05/26 03:46:21;;;;;;;7.90;4.70;;;;;;;;;;2049020;28;20023;-90
2023/05/26 03:47:22;;;;;;;6.22;3.88;;;;;;;;;;2049326;28;20015;-90
2023/05/26 03:48:22;;;;;;;6.03;4.28;;;;;;;;;;2048350;29;20047;-89
2023/05/26 03:49:23;;;;;;;5.70;4.28;;;;;;;;;;2041119;29;20024;-88
2023/05/26 03:50:23;;;;;;;6.68;4.45;;;;;;;;;;2040193;29;20479;-89
2023/05/26 03:51:24;;;;;;;5.55;4.40;;;;;;;;;;2040624;29;20472;-88
2023/05/26 03:52:25;;;;;;;6.63;4.80;;;;;;;;;;2042956;29;20027;-87
2023/05/26 03:53:26;;;;;;;7.35;3.90;;;;;;;;;;2050048;29;20023;-89
2023/05/26 03:54:26;;;;;;;6.40;4.38;;;;;;;;;;2057001;28;20469;-90
2023/05/26 03:55:27;;;;;;;5.63;4.60;;;;;;;;;;2048365;29;20077;-91
2023/05/26 03:56:28;;;;;;;6.03;4.43;;;;;;;;;;2048553;29;20026;-90
2023/05/26 03:57:28;;;;;;;8.75;5.05;;;;;;;;;;2056916;28;20029;-90
2023/05/26 03:58:29;;;;;;;7.00;4.68;;;;;;;;;;2056809;28;20085;-90
2023/05/26 03:59:29;;;;;;;7.63;5.18;;;;;;;;;;2048182;29;20023;-90
2023/05/26 04:00:32;;;;;;;6.85;4.85;;;;;;;;;;2040060;29;20028;-90
2023/05/26 04:01:37;;;;;;;7.43;4.63;;;;;;;;;;1853721;28;10335543;-90
2023/05/26 04:02:38;;;;;;;9.00;4.65;;;;;;;;;;2056565;28;20739;-90
2023/05/26 04:03:38;;;;;;;7.15;5.00;;;;;;;;;;2056451;28;20042;-90
2023/05/26 04:04:39;;;;;;;6.95;4.78;;;;;;;;;;2056395;28;20081;-90
2023/05/26 04:05:39;;;;;;;5.85;4.05;;;;;;;;;;2047892;29;20030;-90
2023/05/26 04:06:40;;;;;;;8.27;5.18;;;;;;;;;;2047668;29;20027;-89
2023/05/26 04:07:42;;;;;;;6.55;5.38;;;;;;;;;;2047787;29;20027;-90
2023/05/26 04:08:43;;;;;;;7.28;4.70;;;;;;;;;;2039574;29;20464;-90
2023/05/26 04:09:43;;;;;;;5.63;4.40;;;;;;;;;;2048216;29;20031;-90
2023/05/26 04:10:43;;;;;;;5.78;4.97;;;;;;;;;;2056725;28;20026;-90
2023/05/26 04:11:45;;;;;;;7.00;4.35;;;;;;;;;;2056979;28;20027;-89
2023/05/26 04:12:45;;;;;;;5.65;3.97;;;;;;;;;;2056788;28;20545;-90
2023/05/26 04:13:46;;;;;;;7.15;4.57;;;;;;;;;;2048171;29;20027;-90
2023/05/26 04:14:46;;;;;;;7.70;5.18;;;;;;;;;;2040292;29;20027;-91
2023/05/26 04:15:46;;;;;;;7.45;4.60;;;;;;;;;;2047960;29;20372;-90
2023/05/26 04:16:48;;;;;;;6.85;5.07;;;;;;;;;;2049058;29;20455;-89
2023/05/26 04:17:49;;;;;;;6.40;4.88;;;;;;;;;;2048536;28;20031;-90
2023/05/26 04:18:49;;;;;;;6.15;4.28;;;;;;;;;;2048010;29;20097;-90
2023/05/26 04:19:50;;;;;;;6.38;4.70;;;;;;;;;;2043026;29;20159;-90
2023/05/26 04:20:51;;;;;;;8.82;5.60;;;;;;;;;;2040291;29;20432;-90
2023/05/26 04:21:51;;;;;;;9.77;4.75;;;;;;;;;;2040551;29;20028;-91
2023/05/26 04:22:52;;;;;;;7.55;5.50;;;;;;;;;;2040951;29;20035;-90
2023/05/26 04:23:52;;;;;;;5.57;4.30;;;;;;;;;;2040288;29;20122;-90
2023/05/26 04:25:11;;;;;;;5.07;4.47;;;;;;;;;;2040103;29;20405;-91
2023/05/26 04:26:14;;;;;;;8.48;4.95;;;;;;;;;;2041772;29;20027;-91
2023/05/26 04:27:14;;;;;;;7.25;4.95;;;;;;;;;;2041339;29;20055;-89
2023/05/26 04:28:15;;;;;;;6.32;4.95;;;;;;;;;;2033159;29;20044;-90
2023/05/26 04:29:15;;;;;;;8.77;4.55;;;;;;;;;;2032306;29;20021;-91
2023/05/26 04:30:16;;;;;;;9.68;5.70;;;;;;;;;;2040046;29;20026;-91
2023/05/26 04:31:17;;;;;;;6.05;4.63;;;;;;;;;;2040279;29;20020;-91
2023/05/26 04:32:20;;;;;;;6.40;4.40;;;;;;;;;;2032341;29;20055;-91
2023/05/26 04:33:22;;;;;;;7.97;4.43;;;;;;;;;;2032443;29;20135;-90
2023/05/26 04:34:23;;;;;;;6.43;4.55;;;;;;;;;;1690711;29;10260817;-90
2023/05/26 04:35:24;;;;;;;4.85;4.35;;;;;;;;;;2031912;29;20047;-90
2023/05/26 04:36:25;;;;;;;4.47;3.60;;;;;;;;;;2032629;29;20058;-91
2023/05/26 04:37:26;;;;;;;4.82;3.25;;;;;;;;;;2040895;29;20027;-91
2023/05/26 04:38:29;;;;;;;5.28;3.42;;;;;;;;;;2032492;29;20020;-91
2023/05/26 04:39:30;;;;;;;4.88;3.10;;;;;;;;;;2024816;29;20020;-90
2023/05/26 04:40:34;;;;;;;6.85;3.30;;;;;;;;;;2024553;29;20481;-90
2023/05/26 04:41:35;;;;;;;4.90;3.10;;;;;;;;;;2032942;29;20038;-90
2023/05/26 04:42:36;;;;;;;4.63;3.17;;;;;;;;;;2040635;29;20388;-90
2023/05/26 04:43:38;;;;;;;3.60;2.90;;;;;;;;;;2041877;29;20487;-91
2023/05/26 04:44:40;;;;;;;3.92;2.70;;;;;;;;;;2042730;29;20030;-91
2023/05/26 04:45:41;;;;;;;3.53;2.90;;;;;;;;;;2034199;29;20043;-90
2023/05/26 04:46:45;;;;;;;3.58;2.85;;;;;;;;;;2047670;29;20038;-90
2023/05/26 04:47:46;;;;;;;4.45;2.70;;;;;;;;;;2048175;29;20649;-90
2023/05/26 04:48:47;;;;;;;5.80;2.80;;;;;;;;;;2047507;29;20058;-90
2023/05/26 04:49:47;;;;;;;4.68;2.75;;;;;;;;;;2047494;29;20023;-91
2023/05/26 04:50:49;;;;;;;5.03;2.78;;;;;;;;;;2047617;29;20035;-91
2023/05/26 04:51:54;;;;;;;5.70;2.70;;;;;;;;;;2039659;29;20032;-90
2023/05/26 04:52:54;;;;;;;4.50;3.25;;;;;;;;;;2047555;29;20511;-90
2023/05/26 04:53:55;;;;;;;5.13;2.88;;;;;;;;;;2047935;29;20031;-90
2023/05/26 04:54:55;;;;;;;4.60;2.63;;;;;;;;;;2048272;29;20027;-91
2023/05/26 04:56:00;;;;;;;4.47;2.70;;;;;;;;;;2047482;29;20344;-91
2023/05/26 04:57:03;;;;;;;4.97;3.35;;;;;;;;;;2047602;29;20031;-90
2023/05/26 04:58:06;;;;;;;4.40;3.22;;;;;;;;;;2039884;29;20145;-90
2023/05/26 04:59:07;;;;;;;7.18;2.80;;;;;;;;;;2047690;29;20043;-91
2023/05/26 05:00:10;;;;;;;6.85;3.10;;;;;;;;;;2047625;29;20035;-90
2023/05/26 05:01:10;;;;;;;2.80;2.45;;;;;;;;;;2047611;29;20530;-90
2023/05/26 05:02:11;;;;;;;3.55;2.58;;;;;;;;;;2047677;29;20076;-91
2023/05/26 05:03:11;;;;;;;2.55;2.30;;;;;;;;;;2047474;29;20614;-91
2023/05/26 05:04:11;;;;;;;4.32;2.85;;;;;;;;;;2047740;29;20038;-90
2023/05/26 05:05:12;;;;;;;4.75;2.50;;;;;;;;;;2047411;29;20027;-91
2023/05/26 05:06:12;;;;;;;6.50;3.03;;;;;;;;;;2039809;29;20109;-91
2023/05/26 05:07:14;;;;;;;3.70;2.35;;;;;;;;;;2039708;29;20456;-91
2023/05/26 05:08:15;;;;;;;4.93;3.30;;;;;;;;;;2047408;29;20046;-90
2023/05/26 05:09:15;;;;;;;3.35;2.80;;;;;;;;;;2047299;29;20034;-91
2023/05/26 05:10:22;;;;;;;2.80;2.20;;;;;;;;;;2047536;29;20019;-91
2023/05/26 05:11:23;;;;;;;2.97;2.78;;;;;;;;;;2050228;28;20030;-90
2023/05/26 05:12:24;;;;;;;3.33;2.45;;;;;;;;;;2047523;29;20045;-91
2023/05/26 05:13:27;;;;;;;3.85;2.72;;;;;;;;;;2039615;29;20079;-91
2023/05/26 05:14:27;;;;;;;5.45;2.55;;;;;;;;;;2047355;28;20106;-91
2023/05/26 05:15:28;;;;;;;3.55;2.67;;;;;;;;;;2047135;29;20415;-91
2023/05/26 05:16:28;;;;;;;5.30;2.60;;;;;;;;;;2039571;29;20083;-92
2023/05/26 05:17:29;;;;;;;2.97;2.60;;;;;;;;;;2047845;29;20050;-91
2023/05/26 05:18:29;;;;;;;3.58;2.53;;;;;;;;;;2047002;29;20058;-90
2023/05/26 05:19:30;;;;;;;3.47;2.65;;;;;;;;;;2047400;29;20023;-89
2023/05/26 05:20:30;;;;;;;4.95;2.60;;;;;;;;;;2047006;29;20086;-89
2023/05/26 05:21:31;;;;;;;4.00;2.20;;;;;;;;;;2047359;29;20082;-89
2023/05/26 05:22:31;;;;;;;3.00;2.70;;;;;;;;;;2047313;29;20083;-89
2023/05/26 05:23:34;;;;;;;2.95;2.20;;;;;;;;;;2047301;29;20448;-90
2023/05/26 05:24:34;;;;;;;3.42;2.60;;;;;;;;;;2047175;29;20455;-90
2023/05/26 05:25:34;;;;;;;2.83;2.10;;;;;;;;;;2047101;29;20118;-90
2023/05/26 05:26:37;;;;;;;3.72;2.65;;;;;;;;;;2047195;29;20037;-89
2023/05/26 05:27:37;;;;;;;5.72;2.60;;;;;;;;;;2039276;29;20036;-89
2023/05/26 05:28:38;;;;;;;4.45;2.20;;;;;;;;;;2047203;29;20327;-90
2023/05/26 05:29:38;;;;;;;2.78;2.47;;;;;;;;;;2047858;28;20103;-89
2023/05/26 05:30:39;;;;;;;4.95;2.42;;;;;;;;;;2038202;28;20511;-92
2023/05/26 05:31:40;;;;;;;4.07;2.83;;;;;;;;;;2047395;29;20452;-90
2023/05/26 05:32:40;;;;;;;3.00;2.70;;;;;;;;;;2047474;29;20110;-91
2023/05/26 05:33:42;;;;;;;6.68;2.45;;;;;;;;;;2047071;29;20499;-90
2023/05/26 05:34:43;;;;;;;4.93;2.42;;;;;;;;;;2047536;29;20028;-91
2023/05/26 05:35:46;;;;;;;3.35;2.03;;;;;;;;;;2048880;29;20039;-89
2023/05/26 05:36:46;;;;;;;3.45;2.00;;;;;;;;;;2047442;29;20027;-90
2023/05/26 05:37:48;;;;;;;3.17;2.40;;;;;;;;;;2047608;29;20019;-90
2023/05/26 05:38:49;;;;;;;3.20;2.10;;;;;;;;;;2048408;28;20382;-90
2023/05/26 05:39:49;;;;;;;5.22;2.15;;;;;;;;;;1690141;29;10460103;-89
2023/05/26 05:40:49;;;;;;;3.75;2.33;;;;;;;;;;2047902;29;20096;-90
2023/05/26 05:41:50;;;;;;;2.67;2.30;;;;;;;;;;2040447;29;20380;-89
2023/05/26 05:42:52;;;;;;;3.83;2.35;;;;;;;;;;2045271;29;20099;-90
2023/05/26 05:43:56;;;;;;;3.80;2.70;;;;;;;;;;2050168;28;20410;-89
2023/05/26 05:44:59;;;;;;;4.80;2.40;;;;;;;;;;2050021;28;20131;-91
2023/05/26 05:45:59;;;;;;;3.00;2.70;;;;;;;;;;2049629;28;20043;-91
2023/05/26 05:47:04;;;;;;;3.97;2.50;;;;;;;;;;2048657;29;20032;-91
2023/05/26 05:48:05;;;;;;;2.70;2.35;;;;;;;;;;2047135;29;20087;-90
2023/05/26 05:49:05;;;;;;;3.55;2.53;;;;;;;;;;2039925;29;20451;-89
2023/05/26 05:50:07;;;;;;;4.30;2.40;;;;;;;;;;2039487;29;20024;-90
2023/05/26 05:51:10;;;;;;;3.80;2.35;;;;;;;;;;2040392;28;20493;-91
2023/05/26 05:52:13;;;;;;;3.63;2.40;;;;;;;;;;2039520;29;20070;-89
2023/05/26 05:54:13;;;;;;;6.22;2.30;;;;;;;;;;2039426;29;20027;-91
2023/05/26 05:55:13;;;;;;;4.03;2.65;;;;;;;;;;2038789;29;20051;-92
2023/05/26 05:57:37;;;;;;;3.90;2.50;;;;;;;;;;2039713;29;20046;-90
2023/05/26 05:58:38;;;;;;;4.82;2.47;;;;;;;;;;2039142;29;20032;-89
2023/05/26 05:59:44;;;;;;;2.55;2.35;;;;;;;;;;2031084;29;20032;-88
2023/05/26 06:00:44;;;;;;;3.15;2.30;;;;;;;;;;2031714;29;20066;-89
2023/05/26 06:01:45;;;;;;;2.65;2.45;;;;;;;;;;2041691;29;20467;-89
2023/05/26 06:02:45;;;;;;;3.08;2.53;;;;;;;;;;2050026;29;20040;-89
2023/05/26 06:03:46;;;;;;;2.78;2.30;;;;;;;;;;2050037;29;20020;-89
2023/05/26 06:04:51;;;;;;;2.72;2.10;;;;;;;;;;2049730;29;20019;-88
2023/05/26 06:05:58;;;;;;;2.75;2.10;;;;;;;;;;2050553;28;20055;-89
2023/05/26 06:07:03;;;;;;;3.17;2.70;;;;;;;;;;2053620;29;20019;-90
2023/05/26 06:09:13;;;;;;;3.78;2.45;;;;;;;;;;2037474;29;20269;-89
2023/05/26 06:10:22;;;;;;;3.47;2.45;;;;;;;;;;2025674;29;20041;-89
2023/05/26 06:11:23;;;;;;;3.20;2.75;;;;;;;;;;2026342;29;20029;-89
2023/05/26 06:12:26;;;;;;;7.43;4.80;;;;;;;;;;2040262;29;20110;-90
2023/05/26 06:13:27;;;;;;;19.13;14.88;;;;;;;;;;2031609;29;20449;-89
2023/05/26 06:14:38;;;;;;;4.03;3.00;;;;;;;;;;2033414;29;20103;-88
2023/05/26 06:15:38;;;;;;;;;;;;;;;;;;2035010;29;20051;-88